sensor_id;sensor_type;location;lat;lon;timestamp;P1;durP1;ratioP1;P2;durP2;ratioP2
63818;SDS011;49970;54.976;73.248;2023-02-01T00:01:39;109.38;;;45.13;;
63818;SDS011;49970;54.976;73.248;2023-02-01T00:04:05;114.88;;;47.55;;
63818;SDS011;49970;54.976;73.248;2023-02-01T00:06:31;112.30;;;44.72;;
63818;SDS011;49970;54.976;73.248;2023-02-01T00:08:58;107.10;;;45.17;;
63818;SDS011;49970;54.976;73.248;2023-02-01T00:11:24;127.00;;;46.67;;
63818;SDS011;49970;54.976;73.248;2023-02-01T00:13:51;113.05;;;45.30;;
63818;SDS011;49970;54.976;73.248;2023-02-01T00:16:19;130.90;;;52.40;;
63818;SDS011;49970;54.976;73.248;2023-02-01T00:18:47;153.25;;;52.03;;
63818;SDS011;49970;54.976;73.248;2023-02-01T00:21:25;158.50;;;62.38;;
63818;SDS011;49970;54.976;73.248;2023-02-01T00:23:51;150.13;;;57.85;;
63818;SDS011;49970;54.976;73.248;2023-02-01T00:26:44;144.38;;;60.88;;
63818;SDS011;49970;54.976;73.248;2023-02-01T00:29:11;147.70;;;52.30;;
63818;SDS011;49970;54.976;73.248;2023-02-01T00:31:50;153.00;;;57.17;;
63818;SDS011;49970;54.976;73.248;2023-02-01T00:34:17;139.25;;;53.90;;
63818;SDS011;49970;54.976;73.248;2023-02-01T00:36:45;139.60;;;52.13;;
63818;SDS011;49970;54.976;73.248;2023-02-01T00:39:12;136.75;;;51.65;;
63818;SDS011;49970;54.976;73.248;2023-02-01T00:41:38;148.98;;;58.83;;
63818;SDS011;49970;54.976;73.248;2023-02-01T00:44:05;136.05;;;55.03;;
63818;SDS011;49970;54.976;73.248;2023-02-01T00:46:37;131.63;;;52.28;;
63818;SDS011;49970;54.976;73.248;2023-02-01T00:49:03;143.32;;;54.45;;
63818;SDS011;49970;54.976;73.248;2023-02-01T00:54:02;159.48;;;52.45;;
63818;SDS011;49970;54.976;73.248;2023-02-01T00:56:30;161.30;;;60.30;;
63818;SDS011;49970;54.976;73.248;2023-02-01T00:58:56;173.35;;;67.45;;
63818;SDS011;49970;54.976;73.248;2023-02-01T01:01:24;156.15;;;65.78;;
63818;SDS011;49970;54.976;73.248;2023-02-01T01:04:01;178.75;;;66.05;;
63818;SDS011;49970;54.976;73.248;2023-02-01T01:06:29;171.75;;;62.97;;
63818;SDS011;49970;54.976;73.248;2023-02-01T01:08:58;167.23;;;63.20;;
63818;SDS011;49970;54.976;73.248;2023-02-01T01:11:37;171.07;;;65.95;;
63818;SDS011;49970;54.976;73.248;2023-02-01T01:14:05;170.75;;;64.40;;
63818;SDS011;49970;54.976;73.248;2023-02-01T01:16:37;176.77;;;65.85;;
63818;SDS011;49970;54.976;73.248;2023-02-01T01:19:03;170.05;;;63.63;;
63818;SDS011;49970;54.976;73.248;2023-02-01T01:21:31;158.50;;;62.08;;
63818;SDS011;49970;54.976;73.248;2023-02-01T01:23:57;164.32;;;62.00;;
63818;SDS011;49970;54.976;73.248;2023-02-01T01:26:24;178.73;;;66.18;;
63818;SDS011;49970;54.976;73.248;2023-02-01T01:28:55;169.35;;;70.18;;
63818;SDS011;49970;54.976;73.248;2023-02-01T01:31:32;202.20;;;77.43;;
63818;SDS011;49970;54.976;73.248;2023-02-01T01:33:59;191.48;;;80.70;;
63818;SDS011;49970;54.976;73.248;2023-02-01T01:36:26;190.35;;;77.60;;
63818;SDS011;49970;54.976;73.248;2023-02-01T01:38:53;200.32;;;81.65;;
63818;SDS011;49970;54.976;73.248;2023-02-01T01:41:28;234.68;;;96.05;;
63818;SDS011;49970;54.976;73.248;2023-02-01T01:44:06;244.60;;;101.93;;
63818;SDS011;49970;54.976;73.248;2023-02-01T01:46:52;266.20;;;106.90;;
63818;SDS011;49970;54.976;73.248;2023-02-01T01:49:23;271.65;;;113.30;;
63818;SDS011;49970;54.976;73.248;2023-02-01T01:51:55;250.23;;;108.30;;
63818;SDS011;49970;54.976;73.248;2023-02-01T01:57:04;246.48;;;104.55;;
63818;SDS011;49970;54.976;73.248;2023-02-01T01:59:38;216.77;;;90.53;;
63818;SDS011;49970;54.976;73.248;2023-02-01T02:02:07;203.60;;;81.18;;
63818;SDS011;49970;54.976;73.248;2023-02-01T02:04:34;204.10;;;78.82;;
63818;SDS011;49970;54.976;73.248;2023-02-01T02:07:08;193.25;;;73.65;;
63818;SDS011;49970;54.976;73.248;2023-02-01T02:10:50;193.55;;;76.47;;
63818;SDS011;49970;54.976;73.248;2023-02-01T02:13:35;190.65;;;78.70;;
63818;SDS011;49970;54.976;73.248;2023-02-01T02:33:37;219.32;;;92.57;;
63818;SDS011;49970;54.976;73.248;2023-02-01T02:44:56;299.60;;;125.88;;
63818;SDS011;49970;54.976;73.248;2023-02-01T02:47:52;290.27;;;125.20;;
63818;SDS011;49970;54.976;73.248;2023-02-01T02:53:32;289.23;;;123.13;;
63818;SDS011;49970;54.976;73.248;2023-02-01T02:56:35;277.90;;;119.75;;
63818;SDS011;49970;54.976;73.248;2023-02-01T02:59:26;256.45;;;117.30;;
63818;SDS011;49970;54.976;73.248;2023-02-01T03:02:13;265.10;;;117.05;;
63818;SDS011;49970;54.976;73.248;2023-02-01T03:05:02;268.30;;;112.05;;
63818;SDS011;49970;54.976;73.248;2023-02-01T03:10:37;243.07;;;101.45;;
63818;SDS011;49970;54.976;73.248;2023-02-01T03:15:57;235.10;;;96.65;;
63818;SDS011;49970;54.976;73.248;2023-02-01T03:18:49;217.52;;;95.80;;
63818;SDS011;49970;54.976;73.248;2023-02-01T03:24:25;211.02;;;90.47;;
63818;SDS011;49970;54.976;73.248;2023-02-01T03:29:48;194.02;;;76.53;;
63818;SDS011;49970;54.976;73.248;2023-02-01T03:32:18;193.25;;;77.38;;
63818;SDS011;49970;54.976;73.248;2023-02-01T03:34:46;174.18;;;73.07;;
63818;SDS011;49970;54.976;73.248;2023-02-01T03:37:27;210.20;;;84.15;;
63818;SDS011;49970;54.976;73.248;2023-02-01T03:42:26;243.23;;;99.53;;
63818;SDS011;49970;54.976;73.248;2023-02-01T03:45:05;239.82;;;100.13;;
63818;SDS011;49970;54.976;73.248;2023-02-01T03:47:46;228.23;;;99.45;;
63818;SDS011;49970;54.976;73.248;2023-02-01T03:50:20;254.02;;;104.60;;
63818;SDS011;49970;54.976;73.248;2023-02-01T03:53:05;251.20;;;107.43;;
63818;SDS011;49970;54.976;73.248;2023-02-01T03:55:36;237.45;;;95.82;;
63818;SDS011;49970;54.976;73.248;2023-02-01T03:58:07;225.32;;;93.63;;
63818;SDS011;49970;54.976;73.248;2023-02-01T04:00:38;204.88;;;88.70;;
63818;SDS011;49970;54.976;73.248;2023-02-01T04:03:06;216.60;;;77.22;;
63818;SDS011;49970;54.976;73.248;2023-02-01T04:05:33;189.02;;;79.90;;
63818;SDS011;49970;54.976;73.248;2023-02-01T04:08:03;183.57;;;75.90;;
63818;SDS011;49970;54.976;73.248;2023-02-01T04:10:36;179.93;;;78.53;;
63818;SDS011;49970;54.976;73.248;2023-02-01T04:13:12;186.40;;;80.10;;
63818;SDS011;49970;54.976;73.248;2023-02-01T04:15:43;191.80;;;84.22;;
63818;SDS011;49970;54.976;73.248;2023-02-01T04:18:09;200.35;;;83.38;;
63818;SDS011;49970;54.976;73.248;2023-02-01T04:20:40;203.40;;;89.07;;
63818;SDS011;49970;54.976;73.248;2023-02-01T04:23:07;203.27;;;89.70;;
63818;SDS011;49970;54.976;73.248;2023-02-01T04:25:33;183.52;;;79.15;;
63818;SDS011;49970;54.976;73.248;2023-02-01T04:28:00;206.10;;;93.93;;
63818;SDS011;49970;54.976;73.248;2023-02-01T04:30:26;217.35;;;96.53;;
63818;SDS011;49970;54.976;73.248;2023-02-01T04:32:52;203.48;;;91.78;;
63818;SDS011;49970;54.976;73.248;2023-02-01T04:35:19;218.27;;;92.22;;
63818;SDS011;49970;54.976;73.248;2023-02-01T04:37:55;224.35;;;95.28;;
63818;SDS011;49970;54.976;73.248;2023-02-01T04:40:31;222.95;;;98.95;;
63818;SDS011;49970;54.976;73.248;2023-02-01T04:42:57;231.60;;;101.03;;
63818;SDS011;49970;54.976;73.248;2023-02-01T04:45:28;231.25;;;100.90;;
63818;SDS011;49970;54.976;73.248;2023-02-01T04:47:55;230.23;;;97.05;;
63818;SDS011;49970;54.976;73.248;2023-02-01T04:50:32;239.68;;;100.63;;
63818;SDS011;49970;54.976;73.248;2023-02-01T04:52:58;227.50;;;101.68;;
63818;SDS011;49970;54.976;73.248;2023-02-01T04:55:24;210.63;;;95.18;;
63818;SDS011;49970;54.976;73.248;2023-02-01T04:57:56;204.10;;;88.50;;
63818;SDS011;49970;54.976;73.248;2023-02-01T05:00:22;213.35;;;96.95;;
63818;SDS011;49970;54.976;73.248;2023-02-01T05:02:59;234.77;;;97.03;;
63818;SDS011;49970;54.976;73.248;2023-02-01T05:05:26;213.85;;;96.00;;
63818;SDS011;49970;54.976;73.248;2023-02-01T05:07:52;233.18;;;102.80;;
63818;SDS011;49970;54.976;73.248;2023-02-01T05:10:19;223.52;;;96.43;;
63818;SDS011;49970;54.976;73.248;2023-02-01T05:12:45;194.40;;;88.43;;
63818;SDS011;49970;54.976;73.248;2023-02-01T05:15:30;187.40;;;84.88;;
63818;SDS011;49970;54.976;73.248;2023-02-01T05:17:56;192.73;;;75.97;;
63818;SDS011;49970;54.976;73.248;2023-02-01T05:20:23;168.65;;;66.63;;
63818;SDS011;49970;54.976;73.248;2023-02-01T05:22:55;189.98;;;73.53;;
63818;SDS011;49970;54.976;73.248;2023-02-01T05:25:22;202.48;;;82.68;;
63818;SDS011;49970;54.976;73.248;2023-02-01T05:27:57;223.93;;;82.63;;
63818;SDS011;49970;54.976;73.248;2023-02-01T05:30:24;226.57;;;92.25;;
63818;SDS011;49970;54.976;73.248;2023-02-01T05:33:01;212.02;;;82.00;;
63818;SDS011;49970;54.976;73.248;2023-02-01T05:35:28;187.65;;;83.07;;
63818;SDS011;49970;54.976;73.248;2023-02-01T05:37:54;198.20;;;80.68;;
63818;SDS011;49970;54.976;73.248;2023-02-01T05:40:21;197.50;;;83.60;;
63818;SDS011;49970;54.976;73.248;2023-02-01T05:42:47;196.98;;;81.93;;
63818;SDS011;49970;54.976;73.248;2023-02-01T05:45:13;168.40;;;72.18;;
63818;SDS011;49970;54.976;73.248;2023-02-01T05:47:40;161.77;;;69.85;;
63818;SDS011;49970;54.976;73.248;2023-02-01T05:50:06;174.88;;;73.88;;
63818;SDS011;49970;54.976;73.248;2023-02-01T05:52:33;189.00;;;75.25;;
63818;SDS011;49970;54.976;73.248;2023-02-01T05:55:09;189.60;;;78.95;;
63818;SDS011;49970;54.976;73.248;2023-02-01T05:57:45;226.70;;;104.93;;
63818;SDS011;49970;54.976;73.248;2023-02-01T06:00:16;241.52;;;109.05;;
63818;SDS011;49970;54.976;73.248;2023-02-01T06:02:43;208.90;;;89.63;;
63818;SDS011;49970;54.976;73.248;2023-02-01T06:05:09;189.13;;;82.05;;
63818;SDS011;49970;54.976;73.248;2023-02-01T06:07:40;179.13;;;77.95;;
63818;SDS011;49970;54.976;73.248;2023-02-01T06:10:06;168.38;;;64.85;;
63818;SDS011;49970;54.976;73.248;2023-02-01T06:12:33;152.55;;;56.72;;
63818;SDS011;49970;54.976;73.248;2023-02-01T06:15:10;141.50;;;52.63;;
63818;SDS011;49970;54.976;73.248;2023-02-01T06:17:44;143.38;;;52.83;;
63818;SDS011;49970;54.976;73.248;2023-02-01T06:20:12;135.85;;;52.72;;
63818;SDS011;49970;54.976;73.248;2023-02-01T06:22:39;133.18;;;53.35;;
63818;SDS011;49970;54.976;73.248;2023-02-01T06:25:06;127.13;;;49.15;;
63818;SDS011;49970;54.976;73.248;2023-02-01T06:27:39;115.90;;;45.10;;
63818;SDS011;49970;54.976;73.248;2023-02-01T06:30:06;114.72;;;45.28;;
63818;SDS011;49970;54.976;73.248;2023-02-01T06:32:43;116.70;;;48.63;;
63818;SDS011;49970;54.976;73.248;2023-02-01T06:35:10;100.53;;;45.08;;
63818;SDS011;49970;54.976;73.248;2023-02-01T06:37:42;104.20;;;41.37;;
63818;SDS011;49970;54.976;73.248;2023-02-01T06:40:13;92.13;;;42.33;;
63818;SDS011;49970;54.976;73.248;2023-02-01T06:42:45;96.43;;;41.35;;
63818;SDS011;49970;54.976;73.248;2023-02-01T06:45:16;107.68;;;42.97;;
63818;SDS011;49970;54.976;73.248;2023-02-01T06:47:43;121.75;;;49.75;;
63818;SDS011;49970;54.976;73.248;2023-02-01T06:50:09;111.53;;;46.10;;
63818;SDS011;49970;54.976;73.248;2023-02-01T06:52:35;132.77;;;48.97;;
63818;SDS011;49970;54.976;73.248;2023-02-01T06:55:02;151.02;;;53.60;;
63818;SDS011;49970;54.976;73.248;2023-02-01T06:57:28;152.50;;;56.70;;
63818;SDS011;49970;54.976;73.248;2023-02-01T06:59:56;148.68;;;61.25;;
63818;SDS011;49970;54.976;73.248;2023-02-01T07:02:27;161.20;;;63.30;;
63818;SDS011;49970;54.976;73.248;2023-02-01T07:04:54;157.55;;;59.22;;
63818;SDS011;49970;54.976;73.248;2023-02-01T07:07:30;164.57;;;64.60;;
63818;SDS011;49970;54.976;73.248;2023-02-01T07:09:56;164.50;;;58.03;;
63818;SDS011;49970;54.976;73.248;2023-02-01T07:12:32;112.35;;;44.05;;
63818;SDS011;49970;54.976;73.248;2023-02-01T07:14:59;122.47;;;49.33;;
63818;SDS011;49970;54.976;73.248;2023-02-01T07:17:27;135.40;;;55.15;;
63818;SDS011;49970;54.976;73.248;2023-02-01T07:19:55;139.70;;;58.05;;
63818;SDS011;49970;54.976;73.248;2023-02-01T07:22:22;123.88;;;48.95;;
63818;SDS011;49970;54.976;73.248;2023-02-01T07:24:51;91.43;;;39.88;;
63818;SDS011;49970;54.976;73.248;2023-02-01T07:27:22;108.95;;;39.65;;
63818;SDS011;49970;54.976;73.248;2023-02-01T07:29:50;108.45;;;38.00;;
63818;SDS011;49970;54.976;73.248;2023-02-01T07:32:21;106.25;;;41.97;;
63818;SDS011;49970;54.976;73.248;2023-02-01T07:34:52;92.55;;;36.60;;
63818;SDS011;49970;54.976;73.248;2023-02-01T07:37:18;94.88;;;35.25;;
63818;SDS011;49970;54.976;73.248;2023-02-01T07:39:44;82.68;;;31.83;;
63818;SDS011;49970;54.976;73.248;2023-02-01T07:42:11;79.95;;;34.35;;
63818;SDS011;49970;54.976;73.248;2023-02-01T07:44:37;87.25;;;34.83;;
63818;SDS011;49970;54.976;73.248;2023-02-01T07:47:09;82.80;;;37.45;;
63818;SDS011;49970;54.976;73.248;2023-02-01T07:49:41;97.50;;;41.10;;
63818;SDS011;49970;54.976;73.248;2023-02-01T07:52:18;88.22;;;40.28;;
63818;SDS011;49970;54.976;73.248;2023-02-01T07:54:44;90.75;;;39.10;;
63818;SDS011;49970;54.976;73.248;2023-02-01T07:57:20;84.65;;;35.13;;
63818;SDS011;49970;54.976;73.248;2023-02-01T07:59:51;91.68;;;40.03;;
63818;SDS011;49970;54.976;73.248;2023-02-01T08:02:43;92.68;;;42.60;;
63818;SDS011;49970;54.976;73.248;2023-02-01T08:05:14;96.80;;;44.53;;
63818;SDS011;49970;54.976;73.248;2023-02-01T08:07:41;110.32;;;47.15;;
63818;SDS011;49970;54.976;73.248;2023-02-01T08:10:12;95.53;;;41.20;;
63818;SDS011;49970;54.976;73.248;2023-02-01T08:12:43;80.13;;;36.47;;
63818;SDS011;49970;54.976;73.248;2023-02-01T08:15:14;81.82;;;34.15;;
63818;SDS011;49970;54.976;73.248;2023-02-01T08:17:50;67.70;;;29.38;;
63818;SDS011;49970;54.976;73.248;2023-02-01T08:20:17;81.35;;;34.78;;
63818;SDS011;49970;54.976;73.248;2023-02-01T08:22:44;74.47;;;34.40;;
63818;SDS011;49970;54.976;73.248;2023-02-01T08:25:10;81.53;;;35.10;;
63818;SDS011;49970;54.976;73.248;2023-02-01T08:27:37;73.68;;;34.33;;
63818;SDS011;49970;54.976;73.248;2023-02-01T08:30:03;74.85;;;34.60;;
63818;SDS011;49970;54.976;73.248;2023-02-01T08:32:35;95.82;;;36.97;;
63818;SDS011;49970;54.976;73.248;2023-02-01T08:35:11;96.00;;;37.38;;
63818;SDS011;49970;54.976;73.248;2023-02-01T08:37:37;83.90;;;35.65;;
63818;SDS011;49970;54.976;73.248;2023-02-01T08:40:14;90.47;;;37.75;;
63818;SDS011;49970;54.976;73.248;2023-02-01T08:42:50;107.13;;;41.88;;
63818;SDS011;49970;54.976;73.248;2023-02-01T08:45:27;93.57;;;39.53;;
63818;SDS011;49970;54.976;73.248;2023-02-01T08:47:57;102.32;;;41.67;;
63818;SDS011;49970;54.976;73.248;2023-02-01T08:50:24;96.88;;;40.95;;
63818;SDS011;49970;54.976;73.248;2023-02-01T08:52:56;106.00;;;39.63;;
63818;SDS011;49970;54.976;73.248;2023-02-01T08:55:23;93.32;;;39.42;;
63818;SDS011;49970;54.976;73.248;2023-02-01T08:58:09;91.20;;;40.28;;
63818;SDS011;49970;54.976;73.248;2023-02-01T09:02:00;99.75;;;42.83;;
63818;SDS011;49970;54.976;73.248;2023-02-01T09:05:50;79.68;;;35.08;;
63818;SDS011;49970;54.976;73.248;2023-02-01T09:09:39;83.00;;;33.47;;
63818;SDS011;49970;54.976;73.248;2023-02-01T09:12:05;78.82;;;33.70;;
63818;SDS011;49970;54.976;73.248;2023-02-01T09:14:32;88.53;;;36.70;;
63818;SDS011;49970;54.976;73.248;2023-02-01T09:16:58;86.97;;;38.72;;
63818;SDS011;49970;54.976;73.248;2023-02-01T09:19:24;93.05;;;38.88;;
63818;SDS011;49970;54.976;73.248;2023-02-01T09:21:50;80.00;;;37.72;;
63818;SDS011;49970;54.976;73.248;2023-02-01T09:24:22;87.50;;;38.00;;
63818;SDS011;49970;54.976;73.248;2023-02-01T09:26:48;81.65;;;34.58;;
63818;SDS011;49970;54.976;73.248;2023-02-01T09:29:14;93.45;;;34.88;;
63818;SDS011;49970;54.976;73.248;2023-02-01T09:31:51;67.97;;;32.55;;
63818;SDS011;49970;54.976;73.248;2023-02-01T09:34:22;72.97;;;34.28;;
63818;SDS011;49970;54.976;73.248;2023-02-01T09:36:48;80.03;;;34.55;;
63818;SDS011;49970;54.976;73.248;2023-02-01T09:39:14;82.38;;;36.22;;
63818;SDS011;49970;54.976;73.248;2023-02-01T09:47:22;81.97;;;38.67;;
63818;SDS011;49970;54.976;73.248;2023-02-01T09:49:55;83.70;;;38.50;;
63818;SDS011;49970;54.976;73.248;2023-02-01T09:55:13;95.38;;;40.55;;
63818;SDS011;49970;54.976;73.248;2023-02-01T09:57:51;97.25;;;41.75;;
63818;SDS011;49970;54.976;73.248;2023-02-01T10:00:30;99.93;;;44.88;;
63818;SDS011;49970;54.976;73.248;2023-02-01T10:03:02;107.15;;;46.10;;
63818;SDS011;49970;54.976;73.248;2023-02-01T10:08:33;97.40;;;42.40;;
63818;SDS011;49970;54.976;73.248;2023-02-01T10:22:20;83.25;;;40.78;;
63818;SDS011;49970;54.976;73.248;2023-02-01T10:25:08;101.80;;;42.00;;
63818;SDS011;49970;54.976;73.248;2023-02-01T10:27:43;101.20;;;42.75;;
63818;SDS011;49970;54.976;73.248;2023-02-01T10:33:45;93.97;;;41.00;;
63818;SDS011;49970;54.976;73.248;2023-02-01T10:37:51;104.10;;;40.85;;
63818;SDS011;49970;54.976;73.248;2023-02-01T10:41:44;93.00;;;41.83;;
63818;SDS011;49970;54.976;73.248;2023-02-01T10:45:35;91.15;;;36.40;;
63818;SDS011;49970;54.976;73.248;2023-02-01T10:52:58;87.90;;;35.90;;
63818;SDS011;49970;54.976;73.248;2023-02-01T10:56:44;100.53;;;35.30;;
63818;SDS011;49970;54.976;73.248;2023-02-01T11:00:41;101.55;;;37.10;;
63818;SDS011;49970;54.976;73.248;2023-02-01T11:05:07;118.50;;;41.10;;
63818;SDS011;49970;54.976;73.248;2023-02-01T11:09:00;130.18;;;43.83;;
63818;SDS011;49970;54.976;73.248;2023-02-01T11:17:42;140.52;;;54.20;;
63818;SDS011;49970;54.976;73.248;2023-02-01T11:21:34;163.18;;;60.20;;
63818;SDS011;49970;54.976;73.248;2023-02-01T11:24:06;136.85;;;57.80;;
63818;SDS011;49970;54.976;73.248;2023-02-01T11:26:43;166.70;;;66.85;;
63818;SDS011;49970;54.976;73.248;2023-02-01T11:29:19;179.57;;;75.25;;
63818;SDS011;49970;54.976;73.248;2023-02-01T11:31:56;178.63;;;73.40;;
63818;SDS011;49970;54.976;73.248;2023-02-01T11:37:31;179.00;;;74.50;;
63818;SDS011;49970;54.976;73.248;2023-02-01T11:42:53;179.73;;;71.38;;
63818;SDS011;49970;54.976;73.248;2023-02-01T11:45:25;167.32;;;68.03;;
63818;SDS011;49970;54.976;73.248;2023-02-01T11:48:02;172.82;;;67.60;;
63818;SDS011;49970;54.976;73.248;2023-02-01T11:50:46;163.75;;;68.10;;
63818;SDS011;49970;54.976;73.248;2023-02-01T11:53:37;175.70;;;68.72;;
63818;SDS011;49970;54.976;73.248;2023-02-01T11:58:50;204.52;;;80.70;;
63818;SDS011;49970;54.976;73.248;2023-02-01T12:01:44;213.32;;;86.97;;
63818;SDS011;49970;54.976;73.248;2023-02-01T12:04:44;229.40;;;93.45;;
63818;SDS011;49970;54.976;73.248;2023-02-01T12:10:32;216.27;;;90.65;;
63818;SDS011;49970;54.976;73.248;2023-02-01T12:13:14;207.38;;;86.38;;
63818;SDS011;49970;54.976;73.248;2023-02-01T12:19:00;228.75;;;91.43;;
63818;SDS011;49970;54.976;73.248;2023-02-01T12:21:48;226.13;;;89.53;;
63818;SDS011;49970;54.976;73.248;2023-02-01T12:24:49;222.20;;;92.32;;
63818;SDS011;49970;54.976;73.248;2023-02-01T12:30:44;227.13;;;91.90;;
63818;SDS011;49970;54.976;73.248;2023-02-01T12:52:18;221.73;;;89.20;;
63818;SDS011;49970;54.976;73.248;2023-02-01T12:55:00;216.32;;;94.65;;
63818;SDS011;49970;54.976;73.248;2023-02-01T12:57:32;208.70;;;89.28;;
63818;SDS011;49970;54.976;73.248;2023-02-01T13:03:01;203.32;;;88.32;;
63818;SDS011;49970;54.976;73.248;2023-02-01T13:05:50;204.73;;;88.95;;
63818;SDS011;49970;54.976;73.248;2023-02-01T13:08:25;206.75;;;94.30;;
63818;SDS011;49970;54.976;73.248;2023-02-01T13:11:03;200.80;;;91.43;;
63818;SDS011;49970;54.976;73.248;2023-02-01T13:19:13;206.80;;;93.70;;
63818;SDS011;49970;54.976;73.248;2023-02-01T13:21:42;210.63;;;96.75;;
63818;SDS011;49970;54.976;73.248;2023-02-01T13:24:24;230.65;;;99.65;;
63818;SDS011;49970;54.976;73.248;2023-02-01T13:27:08;225.25;;;99.35;;
63818;SDS011;49970;54.976;73.248;2023-02-01T13:29:37;238.60;;;105.15;;
63818;SDS011;49970;54.976;73.248;2023-02-01T13:38:28;253.05;;;115.93;;
63818;SDS011;49970;54.976;73.248;2023-02-01T13:43:58;272.30;;;127.70;;
63818;SDS011;49970;54.976;73.248;2023-02-01T13:46:41;285.75;;;127.95;;
63818;SDS011;49970;54.976;73.248;2023-02-01T13:49:20;262.98;;;115.88;;
63818;SDS011;49970;54.976;73.248;2023-02-01T13:51:54;254.52;;;115.57;;
63818;SDS011;49970;54.976;73.248;2023-02-01T13:57:58;256.25;;;109.47;;
63818;SDS011;49970;54.976;73.248;2023-02-01T14:08:15;236.65;;;107.53;;
63818;SDS011;49970;54.976;73.248;2023-02-01T14:10:53;247.35;;;110.40;;
63818;SDS011;49970;54.976;73.248;2023-02-01T14:13:23;247.95;;;112.53;;
63818;SDS011;49970;54.976;73.248;2023-02-01T14:21:25;272.70;;;123.20;;
63818;SDS011;49970;54.976;73.248;2023-02-01T14:24:04;285.95;;;121.15;;
63818;SDS011;49970;54.976;73.248;2023-02-01T14:29:38;281.45;;;123.47;;
63818;SDS011;49970;54.976;73.248;2023-02-01T14:32:21;271.83;;;122.28;;
63818;SDS011;49970;54.976;73.248;2023-02-01T14:34:52;293.45;;;124.55;;
63818;SDS011;49970;54.976;73.248;2023-02-01T14:37:35;292.63;;;124.43;;
63818;SDS011;49970;54.976;73.248;2023-02-01T14:40:16;295.50;;;128.30;;
63818;SDS011;49970;54.976;73.248;2023-02-01T14:42:49;321.58;;;126.65;;
63818;SDS011;49970;54.976;73.248;2023-02-01T14:50:46;286.92;;;123.55;;
63818;SDS011;49970;54.976;73.248;2023-02-01T14:53:31;305.92;;;135.88;;
63818;SDS011;49970;54.976;73.248;2023-02-01T14:56:12;293.40;;;126.90;;
63818;SDS011;49970;54.976;73.248;2023-02-01T15:01:29;311.05;;;136.20;;
63818;SDS011;49970;54.976;73.248;2023-02-01T15:06:54;275.88;;;126.57;;
63818;SDS011;49970;54.976;73.248;2023-02-01T15:09:30;274.65;;;126.47;;
63818;SDS011;49970;54.976;73.248;2023-02-01T15:14:29;278.67;;;121.55;;
63818;SDS011;49970;54.976;73.248;2023-02-01T15:16:57;262.90;;;119.75;;
63818;SDS011;49970;54.976;73.248;2023-02-01T15:19:25;267.67;;;113.90;;
63818;SDS011;49970;54.976;73.248;2023-02-01T15:21:58;285.67;;;124.03;;
63818;SDS011;49970;54.976;73.248;2023-02-01T15:24:35;285.65;;;122.10;;
63818;SDS011;49970;54.976;73.248;2023-02-01T15:27:08;286.33;;;129.13;;
63818;SDS011;49970;54.976;73.248;2023-02-01T15:31:36;254.60;;;123.28;;
63818;SDS011;49970;54.976;73.248;2023-02-01T15:35:45;253.77;;;112.50;;
63818;SDS011;49970;54.976;73.248;2023-02-01T15:39:23;268.58;;;113.40;;
63818;SDS011;49970;54.976;73.248;2023-02-01T15:43:12;252.55;;;107.20;;
63818;SDS011;49970;54.976;73.248;2023-02-01T15:47:12;246.82;;;104.47;;
63818;SDS011;49970;54.976;73.248;2023-02-01T15:54:42;235.13;;;98.45;;
63818;SDS011;49970;54.976;73.248;2023-02-01T15:58:46;252.45;;;102.88;;
63818;SDS011;49970;54.976;73.248;2023-02-01T16:09:41;238.00;;;104.28;;
63818;SDS011;49970;54.976;73.248;2023-02-01T16:13:29;231.00;;;95.43;;
63818;SDS011;49970;54.976;73.248;2023-02-01T16:17:20;235.73;;;98.78;;
63818;SDS011;49970;54.976;73.248;2023-02-01T16:21:11;217.35;;;99.60;;
63818;SDS011;49970;54.976;73.248;2023-02-01T16:25:01;215.38;;;93.53;;
63818;SDS011;49970;54.976;73.248;2023-02-01T16:28:51;218.75;;;89.93;;
63818;SDS011;49970;54.976;73.248;2023-02-01T16:37:03;243.90;;;101.18;;
63818;SDS011;49970;54.976;73.248;2023-02-01T16:40:54;254.88;;;101.68;;
63818;SDS011;49970;54.976;73.248;2023-02-01T16:44:45;246.30;;;102.47;;
63818;SDS011;49970;54.976;73.248;2023-02-01T16:48:37;230.68;;;95.45;;
63818;SDS011;49970;54.976;73.248;2023-02-01T16:52:29;225.73;;;91.35;;
63818;SDS011;49970;54.976;73.248;2023-02-01T16:59:50;222.63;;;101.32;;
63818;SDS011;49970;54.976;73.248;2023-02-01T17:03:40;214.75;;;95.55;;
63818;SDS011;49970;54.976;73.248;2023-02-01T17:15:40;200.48;;;89.25;;
63818;SDS011;49970;54.976;73.248;2023-02-01T17:19:33;205.00;;;85.78;;
63818;SDS011;49970;54.976;73.248;2023-02-01T17:22:35;216.27;;;89.43;;
63818;SDS011;49970;54.976;73.248;2023-02-01T17:25:15;214.40;;;89.50;;
63818;SDS011;49970;54.976;73.248;2023-02-01T17:27:43;215.83;;;92.97;;
63818;SDS011;49970;54.976;73.248;2023-02-01T17:31:36;221.70;;;96.65;;
63818;SDS011;49970;54.976;73.248;2023-02-01T17:35:26;222.02;;;95.13;;
63818;SDS011;49970;54.976;73.248;2023-02-01T17:39:17;223.35;;;93.82;;
63818;SDS011;49970;54.976;73.248;2023-02-01T17:43:32;218.27;;;90.72;;
63818;SDS011;49970;54.976;73.248;2023-02-01T17:47:23;205.23;;;77.43;;
63818;SDS011;49970;54.976;73.248;2023-02-01T17:49:52;202.00;;;87.82;;
63818;SDS011;49970;54.976;73.248;2023-02-01T17:52:21;194.80;;;79.95;;
63818;SDS011;49970;54.976;73.248;2023-02-01T17:54:54;173.15;;;67.43;;
63818;SDS011;49970;54.976;73.248;2023-02-01T17:57:25;185.80;;;75.93;;
63818;SDS011;49970;54.976;73.248;2023-02-01T17:59:51;182.70;;;73.70;;
63818;SDS011;49970;54.976;73.248;2023-02-01T18:02:23;179.43;;;73.57;;
63818;SDS011;49970;54.976;73.248;2023-02-01T18:04:50;180.25;;;68.95;;
63818;SDS011;49970;54.976;73.248;2023-02-01T18:07:21;159.00;;;69.40;;
63818;SDS011;49970;54.976;73.248;2023-02-01T18:09:47;165.82;;;65.80;;
63818;SDS011;49970;54.976;73.248;2023-02-01T18:12:21;149.05;;;61.42;;
63818;SDS011;49970;54.976;73.248;2023-02-01T18:14:51;157.60;;;59.17;;
63818;SDS011;49970;54.976;73.248;2023-02-01T18:17:17;155.13;;;61.85;;
63818;SDS011;49970;54.976;73.248;2023-02-01T18:19:43;151.88;;;63.03;;
63818;SDS011;49970;54.976;73.248;2023-02-01T18:22:20;151.98;;;61.40;;
63818;SDS011;49970;54.976;73.248;2023-02-01T18:24:49;136.57;;;59.80;;
63818;SDS011;49970;54.976;73.248;2023-02-01T18:27:22;139.95;;;56.95;;
63818;SDS011;49970;54.976;73.248;2023-02-01T18:29:49;152.48;;;58.83;;
63818;SDS011;49970;54.976;73.248;2023-02-01T18:32:15;148.68;;;55.70;;
63818;SDS011;49970;54.976;73.248;2023-02-01T18:34:41;135.63;;;55.20;;
63818;SDS011;49970;54.976;73.248;2023-02-01T18:37:07;155.68;;;56.03;;
63818;SDS011;49970;54.976;73.248;2023-02-01T18:39:34;145.38;;;56.00;;